Flight Track Log - Related Links

Times and Time Zones

All times are in EDT time to prevent confusion due to time zone crossing. See the SWA3499 flight status page for this flight to view local times or setup timezone preferences in your user account.

Time Position Orientation Groundspeed Altitude Reporting Facility
EDT Latitude Longitude Course Direction KTS MPH feet Rate Location/Type
Sat 10:27:19 PM 33.6167 -117.9000 203° Southwest 162 186 2,900  Level Southern California TRACON
Sat 10:28:26 PM 33.5583 -117.9067 185° South 193 222 3,900 1,953 Climbing Los Angeles Center
Sat 10:29:28 PM 33.4939 -117.9544 212° Southwest 259 298 7,100 3,220 Climbing Los Angeles Center
Sat 10:30:29 PM 33.4258 -118.0056 212° Southwest 278 320 10,500 2,705 Climbing Los Angeles Center
Sat 10:31:30 PM 33.3650 -118.0844 227° Southwest 324 373 12,600 2,878 Climbing Los Angeles Center
Sat 10:32:32 PM 33.3706 -118.2283 273° West 355 409 16,400 3,220 Climbing Los Angeles Center
Sat 10:33:33 PM 33.3800 -118.3536 275° West 374 430 19,200 2,634 Climbing Los Angeles Center
Sat 10:34:35 PM 33.4728 -118.4219 328° Northwest 404 465 21,800 2,439 Climbing Los Angeles Center
Sat 10:35:36 PM 33.5919 -118.4250 359° North 418 481 24,200 2,164 Climbing Los Angeles Center
Sat 10:36:37 PM 33.7208 -118.4297 358° North 442 509 26,200 2,000 Climbing Los Angeles Center
Sat 10:37:39 PM 33.8564 -118.4319 359° North 464 534 28,300 1,822 Climbing Los Angeles Center
Sat 10:38:52 PM 34.0083 -118.4692 349° North 469 540 30,300 1,689 Climbing Los Angeles Center
Sat 10:39:54 PM 34.1306 -118.5289 338° Northwest 473 544 32,100 1,854 Climbing Los Angeles Center
Sat 10:40:55 PM 34.2514 -118.5878 338° Northwest 471 542 34,100 1,805 Climbing Los Angeles Center
Sat 10:41:57 PM 34.3703 -118.6461 338° Northwest 464 534 35,800 1,463 Climbing Los Angeles Center
Sat 10:42:58 PM 34.4872 -118.7053 337° Northwest 458 527 37,100 1,082 Climbing Los Angeles Center
Sat 10:43:59 PM 34.6067 -118.7642 338° Northwest 461 531 38,000 439 Climbing Los Angeles Center
Sat 10:45:01 PM 34.7514 -118.8356 338° Northwest 467 537 38,000  Level Los Angeles Center
Sat 10:46:02 PM 34.8600 -118.9158 329° Northwest 463 533 38,000  Level Los Angeles Center
Sat 10:47:04 PM 34.9531 -119.0089 321° Northwest 449 517 38,000  Level Los Angeles Center
Sat 10:48:05 PM 35.0514 -119.1036 322° Northwest 451 519 38,000  Level Los Angeles Center
Sat 10:49:07 PM 35.1500 -119.1972 322° Northwest 449 517 38,000  Level Los Angeles Center
Sat 10:50:08 PM 35.2483 -119.2942 321° Northwest 453 521 38,000  Level Los Angeles Center
Sat 10:51:10 PM 35.3461 -119.3911 321° Northwest 454 522 38,000  Level Los Angeles Center
Sat 10:52:11 PM 35.4622 -119.5078 321° Northwest 454 522 38,000  Level Los Angeles Center
Sat 10:53:13 PM 35.5614 -119.6053 321° Northwest 455 524 38,000  Level Los Angeles Center
Sat 10:54:14 PM 35.6619 -119.7053 321° Northwest 461 531 38,000  Level Los Angeles Center
Sat 10:55:15 PM 35.7594 -119.8033 321° Northwest 459 528 38,000  Level Los Angeles Center
Sat 10:56:17 PM 35.8553 -119.9014 320° Northwest 454 522 38,000 -49 Level Los Angeles Center
Sat 10:57:18 PM 35.9522 -119.9994 321° Northwest 453 521 37,900  Descending Los Angeles Center
Sat 10:58:20 PM 36.0586 -120.1069 321° Northwest 416 479 38,000 49 Climbing Los Angeles Center
Sat 10:59:21 PM 36.1472 -120.1969 321° Northwest 413 475 38,000  Level Los Angeles Center
Sat 11:00:37 PM 36.2539 -120.3050 321° Northwest 416 479 38,000  Level Oakland Center
Sat 11:01:38 PM 36.3425 -120.3967 320° Northwest 416 479 38,000 -885 Level Oakland Center
Sat 11:02:39 PM 36.4333 -120.4878 321° Northwest 420 483 36,200 -2,459 Descending Oakland Center
Sat 11:03:40 PM 36.5297 -120.5836 321° Northwest 439 505 33,000 -3,246 Descending Oakland Center
Sat 11:04:41 PM 36.6289 -120.6889 320° Northwest 462 532 29,600 -2,902 Descending Oakland Center
Sat 11:05:42 PM 36.7292 -120.7906 321° Northwest 467 537 27,100 -2,508 Descending Oakland Center
Sat 11:06:43 PM 36.8489 -120.8231 348° North 427 491 24,500 -2,678 Descending Oakland Center
Sat 11:07:43 PM 36.9589 -120.8614 344° North 409 471 21,700 -3,025 Descending Oakland Center
Sat 11:08:44 PM 37.0853 -120.9050 345° North 392 451 18,400 -3,197 Descending Oakland Center
Sat 11:09:45 PM 37.1858 -120.9411 344° North 379 436 15,200 -2,902 Descending Oakland Center
Sat 11:10:46 PM 37.2867 -120.9778 344° North 376 433 12,500 -2,066 Descending Oakland Center
Sat 11:11:47 PM 37.3831 -121.0167 342° North 367 422 11,000 -1,289 Descending Oakland Center
Sat 11:12:47 PM 37.4783 -121.0431 348° North 353 406 9,900 -793 Descending Oakland Center
Sat 11:13:48 PM 37.5636 -121.0728 345° North 326 375 9,400 -652 Descending Oakland Center
Sat 11:14:19 PM 37.6167 -121.0833 351° North 313 360 8,900 -264 Descending Northern Cal TRACON
Sat 11:15:19 PM 37.6833 -121.1167 338° Northwest 307 353 9,000  Climbing Northern Cal TRACON
Sat 11:16:19 PM 37.7833 -121.1500 345° North 306 352 8,900 -500 Descending Northern Cal TRACON
Sat 11:17:19 PM 37.8000 -121.2333 284° West 312 359 8,000 -450 Descending Northern Cal TRACON
Sat 11:18:19 PM 37.8167 -121.3333 282° West 301 346 8,000 -50 Level Northern Cal TRACON
Sat 11:19:19 PM 37.8333 -121.4500 280° West 291 335 7,900  Descending Northern Cal TRACON
Sat 11:20:13 PM 37.8333 -121.5333 270° West 291 335 8,000 -385 Climbing Northern Cal TRACON
Sat 11:21:55 PM 37.8581 -121.7044 280° West 289 333 6,900 -407 Descending Oakland Center
Sat 11:22:55 PM 37.8703 -121.8022 279° West 285 328 6,900 -645 Level Oakland Center
Sat 11:23:56 PM 37.8811 -121.9014 278° West 285 328 5,600 -934 Descending Oakland Center
Sat 11:24:57 PM 37.8922 -121.9983 278° West 282 325 5,000 -344 Descending Oakland Center
Sat 11:25:58 PM 37.9003 -122.0736 278° West 230 265 4,900 -496 Descending Oakland Center
Sat 11:26:58 PM 37.9067 -122.1431 277° West 204 235 4,000 -446 Descending Oakland Center
Sat 11:27:59 PM 37.9144 -122.2111 278° West 198 228 4,000  Level Oakland Center
Sat 11:29:00 PM 37.9206 -122.2794 276° West 197 227 4,000 -393 Level Oakland Center
Sat 11:30:01 PM 37.9086 -122.3411 256° West 196 226 3,200 -1,039 Descending Oakland Center
Sat 11:31:07 PM 37.8500 -122.3500 187° South 170 196 1,800 -667 Descending Northern Cal TRACON
Sat 11:32:07 PM 37.8167 -122.3333 158° South 158 182 1,800 -150 Level Northern Cal TRACON
Sat 11:33:07 PM 37.7667 -122.3167 165° South 166 191 1,500 -524 Descending Northern Cal TRACON
Sat 11:34:13 PM 37.7333 -122.2667 130° Southeast 146 168 700 -650 Descending Northern Cal TRACON
Sat 11:35:07 PM 37.7167 -122.2333 122° Southeast 148 170 200 -556 Descending Northern Cal TRACON
Sat 11:37:00 PM 37.7167 -122.2167 142° Southeast  Level FlightAware Approximate

Login

Don't have an account? Register now (free) for customized features, flight alerts, and more!